Time;durP1;ratioP1;P1;durP2;ratioP2;P2;SDS_P1;SDS_P2;PMS_P1;PMS_P2;Temp;Humidity;BMP_temperature;BMP_pressure;BME280_temperature;BME280_humidity;BME280_pressure;Samples;Min_cycle;Max_cycle;Signal;HPM_P1;HPM_P2
2022/03/03 00:02:26;;;;;;;7.82;2.60;;;25.30;75.30;;;;;;5030996;28;20386;-68
2022/03/03 00:04:53;;;;;;;8.32;2.13;;;25.30;75.60;;;;;;5027078;28;20511;-68
2022/03/03 00:07:19;;;;;;;4.65;2.33;;;25.30;75.80;;;;;;5026535;28;20028;-68
2022/03/03 00:09:45;;;;;;;9.20;2.47;;;25.30;75.80;;;;;;5027536;28;20048;-68
2022/03/03 00:12:12;;;;;;;5.28;2.15;;;25.30;76.10;;;;;;5031856;28;20068;-68
2022/03/03 00:14:39;;;;;;;6.13;1.95;;;25.30;76.20;;;;;;5028529;28;20029;-68
2022/03/03 00:17:05;;;;;;;5.25;1.95;;;25.20;76.10;;;;;;5029271;28;20440;-68
2022/03/03 00:19:32;;;;;;;11.48;2.67;;;25.20;76.00;;;;;;5026121;28;20477;-68
2022/03/03 00:21:59;;;;;;;4.70;1.75;;;25.30;75.90;;;;;;5031609;28;20021;-68
2022/03/03 00:24:25;;;;;;;5.68;2.30;;;25.20;75.80;;;;;;5029033;28;20022;-68
2022/03/03 00:26:52;;;;;;;11.90;2.72;;;25.20;75.90;;;;;;5027971;28;20578;-68
2022/03/03 00:29:19;;;;;;;8.15;2.05;;;25.20;76.10;;;;;;5029540;28;20017;-68
2022/03/03 00:31:45;;;;;;;7.35;2.17;;;25.20;76.20;;;;;;5026599;28;20060;-68
2022/03/03 00:34:13;;;;;;;5.50;2.35;;;25.20;76.20;;;;;;5027419;28;20104;-68
2022/03/03 00:36:41;;;;;;;10.15;2.90;;;25.10;76.10;;;;;;5023735;28;20075;-68
2022/03/03 00:39:07;;;;;;;4.45;2.65;;;25.10;76.00;;;;;;5029228;28;20404;-68
2022/03/03 00:41:34;;;;;;;7.07;2.22;;;25.10;75.90;;;;;;5030567;28;20101;-68
2022/03/03 00:44:00;;;;;;;3.55;2.05;;;25.10;75.70;;;;;;5027781;28;20115;-68
2022/03/03 00:46:27;;;;;;;8.85;2.15;;;25.00;75.40;;;;;;5029982;28;20116;-68
2022/03/03 00:48:55;;;;;;;6.35;2.50;;;25.00;75.20;;;;;;5029257;28;20556;-68
2022/03/03 00:51:22;;;;;;;8.07;2.70;;;25.00;75.20;;;;;;5027076;28;20447;-68
2022/03/03 00:53:50;;;;;;;5.60;2.20;;;25.00;75.20;;;;;;5023945;28;20405;-67
2022/03/03 00:56:17;;;;;;;7.85;2.65;;;24.90;75.20;;;;;;5030654;28;20026;-67
2022/03/03 00:58:44;;;;;;;9.23;2.47;;;24.90;75.30;;;;;;5026360;28;20495;-68
2022/03/03 01:01:11;;;;;;;7.88;2.35;;;24.90;75.40;;;;;;5026199;28;20140;-68
2022/03/03 01:03:37;;;;;;;4.57;2.33;;;24.90;75.50;;;;;;5026752;28;20084;-68
2022/03/03 01:06:04;;;;;;;3.92;2.10;;;24.90;75.50;;;;;;5028819;28;20029;-67
2022/03/03 01:08:31;;;;;;;14.73;3.38;;;24.90;75.60;;;;;;5025656;28;20034;-68
2022/03/03 01:10:57;;;;;;;12.63;3.88;;;24.90;75.70;;;;;;5025671;28;20026;-68
2022/03/03 01:13:24;;;;;;;6.47;3.13;;;24.90;75.80;;;;;;5028729;28;20150;-67
2022/03/03 01:15:51;;;;;;;7.40;2.85;;;24.80;75.90;;;;;;5029936;28;20491;-68
2022/03/03 01:18:17;;;;;;;8.35;2.13;;;24.90;75.80;;;;;;5024467;28;20030;-68
2022/03/03 01:20:44;;;;;;;14.00;2.40;;;24.80;75.60;;;;;;5030362;28;20025;-68
2022/03/03 01:23:10;;;;;;;4.03;1.95;;;24.80;75.60;;;;;;5027171;28;20183;-68
2022/03/03 01:25:37;;;;;;;6.63;1.83;;;24.80;75.70;;;;;;5027525;28;20029;-68
2022/03/03 01:28:04;;;;;;;6.18;1.90;;;24.80;75.60;;;;;;5027396;28;20045;-68
2022/03/03 01:30:30;;;;;;;6.10;1.60;;;24.80;75.70;;;;;;5028258;28;20037;-67
2022/03/03 01:32:57;;;;;;;5.70;2.95;;;24.80;75.70;;;;;;5025368;28;20028;-68
2022/03/03 01:35:23;;;;;;;5.50;1.83;;;24.80;75.80;;;;;;5025711;28;20108;-68
2022/03/03 01:37:50;;;;;;;5.43;2.20;;;24.80;75.80;;;;;;5025423;28;20030;-68
2022/03/03 01:40:17;;;;;;;9.23;2.58;;;24.70;75.80;;;;;;5021085;28;20041;-67
2022/03/03 01:42:44;;;;;;;9.48;2.60;;;24.70;75.90;;;;;;5029909;28;20033;-68
2022/03/03 01:45:10;;;;;;;6.78;2.63;;;24.70;76.00;;;;;;5028231;28;20049;-68
2022/03/03 01:47:37;;;;;;;12.57;3.10;;;24.70;76.20;;;;;;5028447;28;20018;-68
2022/03/03 01:50:04;;;;;;;10.15;3.00;;;24.70;76.30;;;;;;5026098;28;20084;-67
2022/03/03 01:52:31;;;;;;;12.75;3.50;;;24.70;76.40;;;;;;5030112;28;20462;-67
2022/03/03 01:54:57;;;;;;;11.70;3.40;;;24.70;76.60;;;;;;5026594;28;20061;-67
2022/03/03 01:57:24;;;;;;;10.00;3.17;;;24.70;76.60;;;;;;5028302;28;20101;-68
2022/03/03 01:59:50;;;;;;;7.80;2.15;;;24.70;76.70;;;;;;5026935;28;20119;-68
2022/03/03 02:02:17;;;;;;;7.40;2.00;;;24.70;76.60;;;;;;5025610;28;20499;-68
2022/03/03 02:04:43;;;;;;;9.68;2.88;;;24.70;76.50;;;;;;5027805;28;20065;-68
2022/03/03 02:07:10;;;;;;;8.02;1.92;;;24.70;76.50;;;;;;5028443;28;20393;-68
2022/03/03 02:09:38;;;;;;;24.70;3.58;;;24.70;76.40;;;;;;5024217;28;20025;-68
2022/03/03 02:12:05;;;;;;;18.00;4.07;;;24.70;76.50;;;;;;5028280;28;20481;-68
2022/03/03 02:14:41;;;;;;;14.95;2.75;;;24.60;76.50;;;;;;5029557;28;20029;-69
2022/03/03 02:17:08;;;;;;;8.85;2.35;;;24.70;76.30;;;;;;5032296;28;20025;-68
2022/03/03 02:19:35;;;;;;;9.40;2.28;;;24.70;76.30;;;;;;5028002;28;20117;-67
2022/03/03 02:22:02;;;;;;;7.65;2.17;;;24.70;76.30;;;;;;5026658;28;20476;-68
2022/03/03 02:24:28;;;;;;;13.18;2.50;;;24.70;76.40;;;;;;5026017;28;20028;-68
2022/03/03 02:26:56;;;;;;;9.93;2.60;;;24.70;76.50;;;;;;5030601;28;20017;-68
2022/03/03 02:29:23;;;;;;;9.18;2.83;;;24.70;76.50;;;;;;5030521;28;20388;-68
2022/03/03 02:31:49;;;;;;;6.70;2.20;;;24.70;76.60;;;;;;5028129;28;20484;-68
2022/03/03 02:34:17;;;;;;;7.70;2.55;;;24.60;76.50;;;;;;5031333;28;20610;-68
2022/03/03 02:36:43;;;;;;;7.03;2.58;;;24.60;76.40;;;;;;5032118;28;20033;-67
2022/03/03 02:39:10;;;;;;;7.60;2.58;;;24.60;76.40;;;;;;5030365;28;20025;-68
2022/03/03 02:41:37;;;;;;;6.82;2.30;;;24.60;76.40;;;;;;5028437;28;20113;-68
2022/03/03 02:44:04;;;;;;;11.00;3.53;;;24.60;76.30;;;;;;5027398;28;20037;-68
2022/03/03 02:46:31;;;;;;;9.38;2.55;;;24.60;76.20;;;;;;5030348;28;20351;-68
2022/03/03 02:48:57;;;;;;;7.38;2.45;;;24.60;76.20;;;;;;5028984;28;20132;-68
2022/03/03 02:51:24;;;;;;;8.90;2.65;;;24.60;76.10;;;;;;5030081;28;20041;-68
2022/03/03 02:53:51;;;;;;;16.80;2.67;;;24.60;76.10;;;;;;5029291;28;20511;-68
2022/03/03 02:56:18;;;;;;;9.02;3.53;;;24.60;76.10;;;;;;5028952;28;20022;-68
2022/03/03 02:58:44;;;;;;;19.88;3.08;;;24.60;76.20;;;;;;5026106;28;20022;-68
2022/03/03 03:01:11;;;;;;;23.73;4.10;;;24.60;76.40;;;;;;5028393;28;20071;-68
2022/03/03 03:03:38;;;;;;;29.70;4.50;;;24.60;76.70;;;;;;5028874;28;20075;-68
2022/03/03 03:06:05;;;;;;;17.02;3.28;;;24.50;76.80;;;;;;5027236;28;20022;-68
2022/03/03 03:08:31;;;;;;;15.43;4.05;;;24.50;76.70;;;;;;5030842;28;20048;-68
2022/03/03 03:10:58;;;;;;;8.63;2.63;;;24.50;76.60;;;;;;5027809;28;20057;-68
2022/03/03 03:13:24;;;;;;;8.32;3.13;;;24.50;76.60;;;;;;5029631;28;20014;-68
2022/03/03 03:15:51;;;;;;;11.70;3.03;;;24.50;76.70;;;;;;5031384;28;20053;-68
2022/03/03 03:18:19;;;;;;;10.57;2.85;;;24.50;76.80;;;;;;5022617;28;20026;-68
2022/03/03 03:20:48;;;;;;;13.23;3.42;;;24.40;76.90;;;;;;5025011;28;20050;-68
2022/03/03 03:23:18;;;;;;;13.88;3.58;;;24.50;77.10;;;;;;5032301;28;20415;-67
2022/03/03 03:25:45;;;;;;;31.80;5.32;;;24.40;76.90;;;;;;5031375;28;20083;-68
2022/03/03 03:28:13;;;;;;;25.55;5.05;;;24.50;77.60;;;;;;5030176;28;20024;-67
2022/03/03 03:30:41;;;;;;;30.88;5.57;;;24.40;76.90;;;;;;5027663;28;20033;-68
2022/03/03 03:33:08;;;;;;;12.73;4.07;;;24.40;76.90;;;;;;5030718;28;20048;-68
2022/03/03 03:36:14;;;;;;;12.45;4.00;;;24.40;76.90;;;;;;5030555;28;20096;-68
2022/03/03 03:39:20;;;;;;;10.57;4.75;;;24.40;77.00;;;;;;5027443;28;20022;-68
2022/03/03 03:42:26;;;;;;;8.38;2.80;;;24.40;76.90;;;;;;5027503;28;20025;-68
2022/03/03 03:45:12;;;;;;;;;;;24.40;76.90;;;;;;5031508;28;20491;-68
2022/03/03 03:48:18;;;;;;;10.52;3.22;;;24.40;76.80;;;;;;5031707;28;19916;-67
2022/03/03 03:51:04;;;;;;;;;;;24.40;76.70;;;;;;5027165;28;20037;-68
2022/03/03 03:54:10;;;;;;;10.68;3.50;;;24.30;76.50;;;;;;5026567;28;19913;-67
2022/03/03 03:57:16;;;;;;;25.05;15.15;;;24.30;76.50;;;;;;5031047;28;20022;-67
2022/03/03 04:00:22;;;;;;;21.25;11.10;;;24.30;76.90;;;;;;5029090;28;20045;-68
2022/03/03 04:03:28;;;;;;;9.07;5.53;;;24.30;76.50;;;;;;5025253;28;20033;-69
2022/03/03 04:06:36;;;;;;;7.30;4.00;;;24.20;76.80;;;;;;5028737;28;20045;-68
2022/03/03 04:09:42;;;;;;;9.55;3.75;;;24.20;76.90;;;;;;5029428;28;20025;-67
2022/03/03 04:12:28;;;;;;;;;;;24.20;76.70;;;;;;5027812;28;20535;-68
2022/03/03 04:14:54;;;;;;;8.75;2.72;;;24.20;76.70;;;;;;5027529;28;19916;-67
2022/03/03 04:17:21;;;;;;;7.88;2.65;;;24.20;76.50;;;;;;5027770;28;20033;-68
2022/03/03 04:19:47;;;;;;;11.63;4.10;;;24.20;76.50;;;;;;5029345;28;20022;-68
2022/03/03 04:22:14;;;;;;;11.05;3.95;;;24.20;76.50;;;;;;5029383;28;20451;-67
2022/03/03 04:24:40;;;;;;;9.63;4.68;;;24.20;76.40;;;;;;5025738;28;20033;-68
2022/03/03 04:27:07;;;;;;;11.75;6.35;;;24.10;76.60;;;;;;5030378;28;20029;-67
2022/03/03 04:29:34;;;;;;;12.98;5.63;;;24.10;76.80;;;;;;5028087;28;20025;-67
2022/03/03 04:32:00;;;;;;;9.57;3.90;;;24.10;76.90;;;;;;5029008;28;20030;-68
2022/03/03 04:35:06;;;;;;;6.22;3.25;;;24.10;76.70;;;;;;5027123;28;20029;-67
2022/03/03 04:37:52;;;;;;;;;;;24.10;76.70;;;;;;5023700;28;20033;-68
2022/03/03 04:40:58;;;;;;;30.83;9.90;;;24.10;76.60;;;;;;5026300;28;19913;-67
2022/03/03 04:43:44;;;;;;;;;;;24.10;76.50;;;;;;5027755;28;20018;-67
2022/03/03 04:46:19;;;;;;;9.07;4.22;;;24.00;76.40;;;;;;5026643;28;19955;-69
2022/03/03 04:48:45;;;;;;;9.48;3.53;;;24.00;76.50;;;;;;5025248;28;20050;-69
2022/03/03 04:51:12;;;;;;;8.93;3.40;;;24.00;76.60;;;;;;5025269;28;20094;-69
2022/03/03 04:53:38;;;;;;;7.30;2.67;;;24.00;76.60;;;;;;5027297;28;20500;-69
2022/03/03 04:56:05;;;;;;;10.35;3.13;;;24.00;76.60;;;;;;5028638;28;20072;-67
2022/03/03 04:58:31;;;;;;;8.30;3.15;;;24.00;76.70;;;;;;5027589;28;20049;-68
2022/03/03 05:01:37;;;;;;;15.38;4.03;;;24.00;76.70;;;;;;5026444;28;20072;-68
2022/03/03 05:04:43;;;;;;;14.68;4.07;;;24.00;76.70;;;;;;5024649;28;20026;-68
2022/03/03 05:07:29;;;;;;;;;;;24.00;76.70;;;;;;5029292;28;20523;-68
2022/03/03 05:10:35;;;;;;;7.40;2.65;;;23.90;76.70;;;;;;5026057;28;20020;-68
2022/03/03 05:13:21;;;;;;;;;;;23.90;76.80;;;;;;5027741;28;20056;-68
2022/03/03 05:16:27;;;;;;;11.10;3.58;;;23.90;77.00;;;;;;5027128;28;19909;-68
2022/03/03 05:19:33;;;;;;;7.30;2.75;;;23.90;77.10;;;;;;5027463;28;20097;-68
2022/03/03 05:22:19;;;;;;;;;;;23.90;77.30;;;;;;5025726;28;20036;-68
2022/03/03 05:25:25;;;;;;;6.68;2.53;;;23.90;77.40;;;;;;5027386;28;19901;-68
2022/03/03 05:28:11;;;;;;;;;;;23.90;77.30;;;;;;5044595;28;20428;-68
2022/03/03 05:31:17;;;;;;;12.13;3.05;;;23.90;77.40;;;;;;5024065;28;19958;-68
2022/03/03 05:34:23;;;;;;;12.57;3.03;;;23.90;77.30;;;;;;5023953;28;20076;-67
2022/03/03 05:37:29;;;;;;;9.98;3.55;;;23.90;77.30;;;;;;5023314;28;20025;-68
2022/03/03 05:40:15;;;;;;;;;;;23.90;77.40;;;;;;5027277;28;20036;-68
2022/03/03 05:43:22;;;;;;;14.13;3.83;;;23.90;78.10;;;;;;5028925;28;19905;-68
2022/03/03 05:46:28;;;;;;;7.03;2.38;;;23.90;77.60;;;;;;5027982;28;20064;-68
2022/03/03 05:49:34;;;;;;;12.43;2.47;;;23.90;77.60;;;;;;5024292;28;20049;-68
2022/03/03 05:52:40;;;;;;;9.45;2.58;;;23.90;77.70;;;;;;5031054;28;20040;-68
2022/03/03 05:55:46;;;;;;;6.47;2.22;;;23.90;77.50;;;;;;5032517;28;20018;-68
2022/03/03 05:59:04;;;;;;;9.82;2.85;;;23.90;77.40;;;;;;5028557;28;20025;-68
2022/03/03 06:02:10;;;;;;;19.75;3.15;;;23.90;77.40;;;;;;5029413;28;20026;-69
2022/03/03 06:05:16;;;;;;;13.43;2.65;;;23.90;77.50;;;;;;5031080;28;20053;-69
2022/03/03 06:08:23;;;;;;;11.10;3.40;;;23.90;77.50;;;;;;5029434;28;20069;-69
2022/03/03 06:11:32;;;;;;;20.42;3.50;;;23.90;77.70;;;;;;5028660;28;20064;-68
2022/03/03 06:14:42;;;;;;;6.20;1.65;;;24.00;77.70;;;;;;5028755;28;20094;-69
2022/03/03 06:17:48;;;;;;;9.20;1.70;;;23.90;77.60;;;;;;5028452;28;20120;-68
2022/03/03 06:20:54;;;;;;;6.70;1.90;;;23.90;77.50;;;;;;5029723;28;20108;-69
2022/03/03 06:23:40;;;;;;;;;;;23.90;77.50;;;;;;5025678;28;20018;-69
2022/03/03 06:26:46;;;;;;;9.68;2.00;;;23.90;77.70;;;;;;5030175;28;19909;-68
2022/03/03 06:29:33;;;;;;;;;;;24.00;77.90;;;;;;5029791;28;20083;-68
2022/03/03 06:32:39;;;;;;;11.65;2.22;;;24.00;78.00;;;;;;5033763;28;19953;-69
2022/03/03 06:35:45;;;;;;;6.35;2.17;;;24.00;78.10;;;;;;5030793;28;20021;-69
2022/03/03 06:38:31;;;;;;;;;;;24.00;78.10;;;;;;5031250;28;20060;-68
2022/03/03 06:41:37;;;;;;;7.75;1.38;;;24.00;78.00;;;;;;5031353;28;19905;-69
2022/03/03 06:44:43;;;;;;;1.75;1.30;;;24.10;77.90;;;;;;5027461;28;20054;-69
2022/03/03 06:47:49;;;;;;;3.28;1.73;;;24.10;77.80;;;;;;5030862;28;20025;-69
2022/03/03 06:50:55;;;;;;;8.27;1.75;;;24.10;77.70;;;;;;5029662;28;20450;-69
2022/03/03 06:53:50;;;;;;;;;;;24.10;77.80;;;;;;5031919;28;20397;-69
2022/03/03 06:56:56;;;;;;;6.90;1.63;;;24.10;77.70;;;;;;5019043;28;19913;-69
2022/03/03 07:00:03;;;;;;;6.88;3.00;;;24.20;78.40;;;;;;5023603;28;20398;-69
2022/03/03 07:02:48;;;;;;;;;;;24.20;77.50;;;;;;5027842;28;20025;-69
2022/03/03 07:05:55;;;;;;;6.75;1.85;;;24.20;77.40;;;;;;5027948;28;19909;-69
2022/03/03 07:09:01;;;;;;;9.27;2.85;;;24.30;77.30;;;;;;5029148;28;20100;-69
2022/03/03 07:12:07;;;;;;;9.35;2.88;;;24.30;77.10;;;;;;5026858;28;20049;-69
2022/03/03 07:14:52;;;;;;;;;;;24.30;77.30;;;;;;5025162;28;20092;-69
2022/03/03 07:18:04;;;;;;;3.30;2.08;;;24.30;77.50;;;;;;5028731;28;19947;-68
2022/03/03 07:21:25;;;;;;;5.40;2.30;;;24.40;77.40;;;;;;5032324;28;20452;-69
2022/03/03 07:24:50;;;;;;;4.30;1.38;;;24.40;77.10;;;;;;5031084;28;20035;-69
2022/03/03 07:27:56;;;;;;;6.68;2.03;;;24.40;76.90;;;;;;5031751;28;20029;-69
2022/03/03 07:31:02;;;;;;;6.07;2.22;;;24.50;76.50;;;;;;5028028;28;20439;-69
2022/03/03 07:33:51;;;;;;;5.18;1.60;;;24.50;76.60;;;;;;5027762;28;20021;-69
2022/03/03 07:36:57;;;;;;;8.40;2.45;;;24.60;76.30;;;;;;5027713;28;20469;-69
2022/03/03 07:39:30;;;;;;;11.93;2.42;;;24.60;76.10;;;;;;5025357;28;20029;-69
2022/03/03 07:41:58;;;;;;;6.38;2.55;;;24.60;75.90;;;;;;5032510;28;20033;-69
2022/03/03 07:44:25;;;;;;;5.78;2.53;;;24.70;75.80;;;;;;5029368;28;20048;-69
2022/03/03 07:46:53;;;;;;;6.65;2.35;;;24.70;75.40;;;;;;5032129;28;20702;-69
2022/03/03 07:49:21;;;;;;;8.02;2.75;;;24.70;75.30;;;;;;5028338;28;20049;-69
2022/03/03 07:51:49;;;;;;;3.88;2.47;;;24.80;75.20;;;;;;5028362;28;20044;-69
2022/03/03 07:54:16;;;;;;;10.27;3.55;;;24.80;74.90;;;;;;5030130;28;20032;-69
2022/03/03 07:56:48;;;;;;;8.98;2.38;;;24.80;74.80;;;;;;5030781;28;20026;-69
2022/03/03 07:59:18;;;;;;;8.35;2.40;;;24.90;74.70;;;;;;5026447;28;20473;-69
2022/03/03 08:01:47;;;;;;;7.85;2.53;;;24.90;74.50;;;;;;5025628;28;20030;-69
2022/03/03 08:04:16;;;;;;;5.53;2.00;;;24.90;74.30;;;;;;5029901;28;20029;-69
2022/03/03 08:06:45;;;;;;;5.18;2.70;;;25.00;74.10;;;;;;5030063;28;20488;-69
2022/03/03 08:09:13;;;;;;;4.35;1.98;;;25.00;73.80;;;;;;5029057;28;20028;-69
2022/03/03 08:11:41;;;;;;;5.32;1.63;;;25.10;74.00;;;;;;5025368;28;20037;-69
2022/03/03 08:14:07;;;;;;;7.07;2.45;;;25.10;73.80;;;;;;5029499;28;20525;-69
2022/03/03 08:16:36;;;;;;;5.97;2.33;;;25.10;73.50;;;;;;5026585;28;20021;-69
2022/03/03 08:19:04;;;;;;;2.53;1.88;;;25.20;73.60;;;;;;5027430;28;20439;-69
2022/03/03 08:21:32;;;;;;;6.18;1.88;;;25.20;73.50;;;;;;5028511;28;20052;-69
2022/03/03 08:24:02;;;;;;;7.40;2.20;;;25.30;73.50;;;;;;5027224;28;20026;-69
2022/03/03 08:26:30;;;;;;;5.03;1.80;;;25.30;73.10;;;;;;5028319;28;20118;-69
2022/03/03 08:28:56;;;;;;;5.32;2.00;;;25.40;72.80;;;;;;5031242;28;20021;-69
2022/03/03 08:31:38;;;;;;;5.95;1.95;;;25.40;72.30;;;;;;5027366;28;20034;-69
2022/03/03 08:34:27;;;;;;;4.15;1.73;;;25.50;71.90;;;;;;5029343;28;20033;-69
2022/03/03 08:37:00;;;;;;;5.25;2.25;;;25.50;71.30;;;;;;5031067;28;20021;-69
2022/03/03 08:39:28;;;;;;;7.95;2.13;;;25.60;71.20;;;;;;5024661;28;20502;-69
2022/03/03 08:42:02;;;;;;;7.78;2.00;;;25.60;71.20;;;;;;5029077;28;20423;-69
2022/03/03 08:44:34;;;;;;;4.60;2.03;;;25.70;71.20;;;;;;5026888;28;20025;-69
2022/03/03 08:47:03;;;;;;;9.75;1.77;;;25.70;71.00;;;;;;5027766;28;20040;-68
2022/03/03 08:49:39;;;;;;;6.03;1.50;;;25.70;70.60;;;;;;5027203;28;20045;-69
2022/03/03 08:52:09;;;;;;;14.32;2.67;;;25.70;70.20;;;;;;5027999;28;20041;-69
2022/03/03 08:54:36;;;;;;;39.08;3.97;;;25.70;70.30;;;;;;5028589;28;20499;-70
2022/03/03 08:57:03;;;;;;;25.52;3.03;;;25.70;70.50;;;;;;5027305;28;20029;-69
2022/03/03 08:59:29;;;;;;;27.48;2.33;;;25.80;70.50;;;;;;5028781;28;20025;-69
2022/03/03 09:01:57;;;;;;;12.93;1.92;;;25.80;69.90;;;;;;5023890;28;20022;-69
2022/03/03 09:04:23;;;;;;;5.80;3.08;;;25.70;69.60;;;;;;5027272;28;20033;-69
2022/03/03 09:06:50;;;;;;;10.95;1.83;;;25.70;69.30;;;;;;5028138;28;20025;-69
2022/03/03 09:09:16;;;;;;;5.50;1.38;;;25.80;69.10;;;;;;5025183;28;20029;-69
2022/03/03 09:11:43;;;;;;;6.25;1.42;;;25.80;68.80;;;;;;5030880;28;20046;-70
2022/03/03 09:14:11;;;;;;;4.05;1.83;;;25.80;68.60;;;;;;5026157;28;20032;-70
2022/03/03 09:16:38;;;;;;;3.00;1.13;;;25.80;68.60;;;;;;5027576;28;20374;-69
2022/03/03 09:19:04;;;;;;;3.70;1.80;;;25.80;68.40;;;;;;5028157;28;20013;-69
2022/03/03 09:21:32;;;;;;;6.47;1.17;;;25.90;68.40;;;;;;5028473;28;20030;-69
2022/03/03 09:23:58;;;;;;;6.60;1.17;;;25.90;68.30;;;;;;5028789;28;20065;-69
2022/03/03 09:26:25;;;;;;;4.95;1.15;;;25.90;67.80;;;;;;5032300;28;20018;-69
2022/03/03 09:28:51;;;;;;;5.47;1.42;;;25.90;67.70;;;;;;5030452;28;20163;-69
2022/03/03 09:31:18;;;;;;;10.45;1.45;;;25.80;67.80;;;;;;5029481;28;20044;-69
2022/03/03 09:33:44;;;;;;;13.25;1.70;;;25.80;68.00;;;;;;5031424;28;20030;-69
2022/03/03 09:36:11;;;;;;;7.75;1.98;;;25.80;68.10;;;;;;5031137;28;20483;-69
2022/03/03 09:38:37;;;;;;;10.13;2.03;;;25.70;67.60;;;;;;5031030;28;20528;-69
2022/03/03 09:41:04;;;;;;;8.85;1.40;;;25.70;67.70;;;;;;5033989;28;20473;-69
2022/03/03 09:43:30;;;;;;;5.28;1.02;;;25.70;67.70;;;;;;5032068;28;20028;-70
2022/03/03 09:45:57;;;;;;;7.22;1.73;;;25.70;67.80;;;;;;5030929;28;20021;-69
2022/03/03 09:48:23;;;;;;;5.28;2.22;;;25.60;67.70;;;;;;5029031;28;20029;-69
2022/03/03 09:50:50;;;;;;;7.15;2.15;;;25.70;67.80;;;;;;5031018;28;20633;-69
2022/03/03 09:53:17;;;;;;;5.50;2.03;;;25.70;67.70;;;;;;5030710;28;20507;-69
2022/03/03 09:55:45;;;;;;;5.75;1.70;;;25.80;67.60;;;;;;5033221;28;20032;-69
2022/03/03 09:58:13;;;;;;;8.05;1.50;;;25.80;67.30;;;;;;5030271;28;20109;-69
2022/03/03 10:00:41;;;;;;;9.27;1.92;;;26.00;67.30;;;;;;5031465;28;20025;-69
2022/03/03 10:03:10;;;;;;;5.95;1.88;;;26.00;66.90;;;;;;5032646;28;20033;-69
2022/03/03 10:05:47;;;;;;;16.23;1.60;;;26.20;67.00;;;;;;5029427;28;20010;-69
2022/03/03 10:08:15;;;;;;;8.20;1.38;;;26.30;66.90;;;;;;5032385;28;20030;-69
2022/03/03 10:10:45;;;;;;;4.68;1.20;;;26.40;66.40;;;;;;5031444;28;20547;-69
2022/03/03 10:13:16;;;;;;;16.95;2.17;;;26.40;65.80;;;;;;5030109;28;20025;-69
2022/03/03 10:15:44;;;;;;;5.30;0.98;;;26.40;65.00;;;;;;5029468;28;20109;-69
2022/03/03 10:18:14;;;;;;;4.35;1.52;;;26.40;64.70;;;;;;5031391;28;20095;-70
2022/03/03 10:20:47;;;;;;;3.55;1.10;;;26.50;64.10;;;;;;5028460;28;20108;-70
2022/03/03 10:23:14;;;;;;;1.77;0.70;;;26.40;63.60;;;;;;5032923;28;20139;-69
2022/03/03 10:25:43;;;;;;;4.32;1.30;;;26.40;63.50;;;;;;5030592;28;20103;-69
2022/03/03 10:28:21;;;;;;;7.57;1.40;;;26.30;63.20;;;;;;5028304;28;20033;-70
2022/03/03 10:30:57;;;;;;;5.63;1.23;;;26.20;63.30;;;;;;5025405;28;20662;-70
2022/03/03 10:33:38;;;;;;;7.53;1.38;;;26.20;63.70;;;;;;5029642;28;20030;-69
2022/03/03 10:36:31;;;;;;;17.50;1.33;;;26.20;64.10;;;;;;5027771;28;20014;-70
2022/03/03 10:39:06;;;;;;;13.70;2.40;;;26.10;64.20;;;;;;5028165;28;20063;-70
2022/03/03 10:41:40;;;;;;;16.55;2.08;;;26.10;64.50;;;;;;5030352;28;20021;-69
2022/03/03 10:44:10;;;;;;;13.88;1.77;;;26.00;64.70;;;;;;5031150;28;20048;-69
2022/03/03 10:46:39;;;;;;;23.88;2.22;;;26.00;64.60;;;;;;5030726;28;20041;-69
2022/03/03 10:49:21;;;;;;;11.25;1.65;;;26.00;64.80;;;;;;5032173;28;20115;-70
2022/03/03 10:51:48;;;;;;;11.75;1.48;;;26.00;64.70;;;;;;5028258;28;20041;-69
2022/03/03 10:54:15;;;;;;;12.38;1.35;;;25.90;64.60;;;;;;5029880;28;20026;-69
2022/03/03 10:56:47;;;;;;;9.48;1.80;;;25.90;64.60;;;;;;5029155;28;20112;-69
2022/03/03 10:59:24;;;;;;;9.30;2.00;;;25.80;64.40;;;;;;5030035;28;20380;-69
2022/03/03 11:01:53;;;;;;;36.15;4.20;;;25.90;64.60;;;;;;5029256;28;20030;-70
2022/03/03 11:04:25;;;;;;;18.25;1.45;;;25.90;64.50;;;;;;5021104;28;20029;-69
2022/03/03 11:06:54;;;;;;;25.17;2.13;;;25.90;64.40;;;;;;5029139;28;20029;-69
2022/03/03 11:09:20;;;;;;;15.00;1.52;;;25.90;64.50;;;;;;5032973;28;20087;-69
2022/03/03 11:11:47;;;;;;;6.13;1.40;;;25.90;64.30;;;;;;5029813;28;20030;-69
2022/03/03 11:14:13;;;;;;;7.43;0.95;;;25.90;64.30;;;;;;5026915;28;20099;-69
2022/03/03 11:16:42;;;;;;;11.68;2.00;;;25.90;64.30;;;;;;5030024;28;20041;-69
2022/03/03 11:19:11;;;;;;;4.07;1.80;;;26.00;64.50;;;;;;5029837;28;20522;-69
2022/03/03 11:21:37;;;;;;;6.68;1.10;;;26.00;64.70;;;;;;5028761;28;20406;-69
2022/03/03 11:24:04;;;;;;;9.02;1.30;;;26.00;64.90;;;;;;5029200;28;20025;-69
2022/03/03 11:26:39;;;;;;;4.65;0.98;;;26.00;64.90;;;;;;5029913;28;20026;-69
2022/03/03 11:29:15;;;;;;;4.45;1.27;;;26.00;64.70;;;;;;5029593;28;20021;-69
2022/03/03 11:31:59;;;;;;;6.88;2.20;;;26.00;64.60;;;;;;5025950;28;20507;-69
2022/03/03 11:34:36;;;;;;;13.57;1.98;;;26.00;64.40;;;;;;5022774;28;20013;-69
2022/03/03 11:37:23;;;;;;;10.18;1.30;;;26.10;64.60;;;;;;5026942;28;20497;-69
2022/03/03 11:39:57;;;;;;;6.80;1.65;;;26.20;64.20;;;;;;5026190;28;20701;-69
2022/03/03 11:42:27;;;;;;;7.90;1.13;;;26.30;64.10;;;;;;5029645;28;20029;-69
2022/03/03 11:45:00;;;;;;;4.20;0.80;;;26.40;63.80;;;;;;5030396;28;20020;-69
2022/03/03 11:47:30;;;;;;;1.83;0.90;;;26.60;63.40;;;;;;5028971;28;20029;-69
2022/03/03 11:50:23;;;;;;;4.80;1.25;;;26.70;63.30;;;;;;5029222;28;20050;-69
2022/03/03 11:53:18;;;;;;;5.72;1.85;;;26.80;62.80;;;;;;5027697;28;20543;-69
2022/03/03 11:55:57;;;;;;;14.25;1.58;;;26.80;62.80;;;;;;5025406;28;20056;-69
2022/03/03 11:58:41;;;;;;;8.05;1.17;;;26.80;62.60;;;;;;5028540;28;20040;-69
2022/03/03 12:01:13;;;;;;;2.85;1.08;;;26.80;62.40;;;;;;5031275;28;20029;-69
2022/03/03 12:04:02;;;;;;;6.75;1.80;;;26.80;62.60;;;;;;5027202;28;20087;-68
2022/03/03 12:06:47;;;;;;;7.13;1.30;;;26.70;62.40;;;;;;5028277;28;20021;-68
2022/03/03 12:09:22;;;;;;;;;;;26.70;62.30;;;;;;5029584;28;20331;-68
2022/03/03 12:11:49;;;;;;;8.10;1.33;;;26.60;62.40;;;;;;5028520;28;19913;-69
2022/03/03 12:14:29;;;;;;;8.75;1.23;;;26.60;62.50;;;;;;5027186;28;20030;-68
2022/03/03 12:17:34;;;;;;;10.02;1.73;;;26.50;62.50;;;;;;5030325;28;20034;-68
2022/03/03 12:20:47;;;;;;;10.83;1.57;;;26.50;62.90;;;;;;5021998;28;20135;-68
2022/03/03 12:23:18;;;;;;;12.98;1.55;;;26.40;62.70;;;;;;5028622;28;20389;-69
2022/03/03 12:25:51;;;;;;;10.85;1.60;;;26.40;62.70;;;;;;5027822;28;20091;-68
2022/03/03 12:28:47;;;;;;;6.38;1.48;;;26.40;62.40;;;;;;5030035;28;20022;-69
2022/03/03 12:31:29;;;;;;;7.05;1.40;;;26.40;61.90;;;;;;5029428;28;20049;-68
2022/03/03 12:34:20;;;;;;;3.20;1.35;;;26.40;61.70;;;;;;5027664;28;20618;-68
2022/03/03 12:36:46;;;;;;;10.82;1.00;;;26.40;61.60;;;;;;5025646;28;20064;-69
2022/03/03 12:39:13;;;;;;;4.47;1.33;;;26.30;61.10;;;;;;5027762;28;20049;-69
2022/03/03 12:41:40;;;;;;;7.30;1.45;;;26.30;61.10;;;;;;5030181;28;20104;-69
2022/03/03 12:44:12;;;;;;;6.53;1.17;;;26.30;61.10;;;;;;5026609;28;20030;-69
2022/03/03 12:46:40;;;;;;;8.13;1.17;;;26.30;61.20;;;;;;5027236;28;20033;-68
2022/03/03 12:49:09;;;;;;;13.07;1.73;;;26.30;61.00;;;;;;5029406;28;20045;-69
2022/03/03 12:51:42;;;;;;;5.18;1.05;;;26.30;60.80;;;;;;5027767;28;20448;-69
2022/03/03 12:54:09;;;;;;;13.07;1.88;;;26.20;60.50;;;;;;5024480;28;20018;-69
2022/03/03 12:56:35;;;;;;;15.80;2.75;;;26.30;60.50;;;;;;5028854;28;20488;-68
2022/03/03 12:59:07;;;;;;;9.43;1.65;;;26.20;60.40;;;;;;5024431;28;20460;-68
2022/03/03 13:01:36;;;;;;;11.00;1.83;;;26.20;60.40;;;;;;5027297;28;20029;-68
2022/03/03 13:04:04;;;;;;;7.13;1.63;;;26.20;60.40;;;;;;5030147;28;20025;-68
2022/03/03 13:06:33;;;;;;;6.47;1.42;;;26.20;60.20;;;;;;5027464;28;20036;-68
2022/03/03 13:09:04;;;;;;;1.83;0.90;;;26.20;60.00;;;;;;5027908;28;20026;-69
2022/03/03 13:11:31;;;;;;;30.85;3.03;;;26.20;59.80;;;;;;5029679;28;20396;-69
2022/03/03 13:14:06;;;;;;;28.17;2.80;;;26.20;60.10;;;;;;5024329;28;20148;-68
2022/03/03 13:16:37;;;;;;;29.35;4.47;;;26.20;60.30;;;;;;5027344;28;20496;-68
2022/03/03 13:19:05;;;;;;;24.88;2.80;;;26.20;60.20;;;;;;5028621;28;20044;-68
2022/03/03 13:21:35;;;;;;;11.70;1.70;;;26.20;60.20;;;;;;5028808;28;20022;-69
2022/03/03 13:24:06;;;;;;;20.00;1.50;;;26.20;60.10;;;;;;5027788;28;20093;-68
2022/03/03 13:26:49;;;;;;;7.65;1.65;;;26.20;60.10;;;;;;5030904;28;20056;-69
2022/03/03 13:29:23;;;;;;;14.38;2.13;;;26.20;59.90;;;;;;5023552;28;20033;-68
2022/03/03 13:31:51;;;;;;;71.07;6.53;;;26.30;59.90;;;;;;5028153;28;20439;-68
2022/03/03 13:34:36;;;;;;;60.53;6.38;;;26.40;60.60;;;;;;5024761;28;20029;-68
2022/03/03 13:37:18;;;;;;;34.20;3.65;;;26.50;60.30;;;;;;5029706;28;20076;-71
2022/03/03 13:39:45;;;;;;;20.88;2.00;;;26.50;59.70;;;;;;5026339;28;20431;-68